createdAt,value
2022-08-06T00:13:47.434Z,621
2022-08-06T00:33:51.792Z,620
2022-08-06T00:53:48.385Z,620
2022-08-06T01:14:02.515Z,620
2022-08-06T01:33:47.935Z,619
2022-08-06T01:54:06.157Z,618
2022-08-06T02:13:47.715Z,617
2022-08-06T02:34:01.513Z,622
2022-08-06T02:54:02.908Z,620
2022-08-06T03:13:47.863Z,620
2022-08-06T03:33:55.906Z,619
2022-08-06T03:53:55.949Z,620
2022-08-06T04:14:06.564Z,619
2022-08-06T04:33:51.672Z,620
2022-08-06T04:53:57.221Z,620
2022-08-06T05:13:48.130Z,620
2022-08-06T05:33:48.179Z,623
2022-08-06T05:54:02.856Z,629
2022-08-06T06:33:51.244Z,631
2022-08-06T06:54:06.321Z,635
2022-08-06T07:13:51.285Z,639
2022-08-06T07:34:00.401Z,639
2022-08-06T07:54:07.177Z,637
2022-08-06T08:13:49.500Z,639
2022-08-06T08:33:48.612Z,642
2022-08-06T08:53:58.260Z,648
2022-08-06T09:13:50.990Z,639
2022-08-06T09:34:18.697Z,634
2022-08-06T10:13:48.911Z,638
2022-08-06T10:33:56.199Z,636
2022-08-06T11:14:01.130Z,630
2022-08-06T12:13:53.519Z,631
2022-08-06T12:53:49.129Z,629
2022-08-06T13:14:06.333Z,632
2022-08-06T13:34:05.183Z,630
2022-08-06T13:53:58.101Z,626
2022-08-06T14:13:57.310Z,626
2022-08-06T14:33:59.373Z,625
2022-08-06T14:53:57.409Z,635
2022-08-06T15:14:05.418Z,634
2022-08-06T15:33:57.455Z,631
2022-08-06T15:53:54.236Z,627
2022-08-06T16:13:54.283Z,626
2022-08-06T16:33:53.472Z,626
2022-08-06T16:54:07.403Z,626
2022-08-06T17:13:54.655Z,620
2022-08-06T17:33:49.707Z,625
2022-08-06T18:13:52.291Z,631
2022-08-06T18:33:53.873Z,624
2022-08-06T18:54:00.836Z,622
2022-08-06T19:13:55.225Z,621
2022-08-06T19:33:49.992Z,621
2022-08-06T19:53:58.002Z,619
2022-08-06T20:13:50.049Z,615
2022-08-06T20:33:58.366Z,614
2022-08-06T20:53:56.152Z,618
2022-08-06T21:13:59.550Z,626
2022-08-06T21:33:52.861Z,623
2022-08-06T21:53:53.232Z,619
2022-08-06T22:13:51.022Z,620
2022-08-06T22:33:58.888Z,621
2022-08-06T22:54:25.210Z,621
2022-08-06T23:33:55.195Z,615
2022-08-06T23:54:05.647Z,615
